sensor_id;sensor_type;location;lat;lon;timestamp;P1;durP1;ratioP1;P2;durP2;ratioP2
49828;SDS011;35723;51.194;5.112;2024-03-07T00:02:07;62.28;;;34.30;;
49828;SDS011;35723;51.194;5.112;2024-03-07T00:04:33;67.15;;;35.78;;
49828;SDS011;35723;51.194;5.112;2024-03-07T00:07:01;65.90;;;35.38;;
49828;SDS011;35723;51.194;5.112;2024-03-07T00:09:33;65.32;;;33.53;;
49828;SDS011;35723;51.194;5.112;2024-03-07T00:11:59;65.97;;;35.25;;
49828;SDS011;35723;51.194;5.112;2024-03-07T00:14:28;69.00;;;35.33;;
49828;SDS011;35723;51.194;5.112;2024-03-07T00:16:57;65.25;;;34.70;;
49828;SDS011;35723;51.194;5.112;2024-03-07T00:19:27;68.95;;;35.88;;
49828;SDS011;35723;51.194;5.112;2024-03-07T00:21:58;68.35;;;35.17;;
49828;SDS011;35723;51.194;5.112;2024-03-07T00:24:24;67.15;;;34.72;;
49828;SDS011;35723;51.194;5.112;2024-03-07T00:26:52;64.45;;;33.78;;
49828;SDS011;35723;51.194;5.112;2024-03-07T00:29:18;67.40;;;35.20;;
49828;SDS011;35723;51.194;5.112;2024-03-07T00:31:47;68.57;;;35.72;;
49828;SDS011;35723;51.194;5.112;2024-03-07T00:34:13;69.63;;;35.53;;
49828;SDS011;35723;51.194;5.112;2024-03-07T00:36:41;73.78;;;36.15;;
49828;SDS011;35723;51.194;5.112;2024-03-07T00:39:10;67.90;;;34.38;;
49828;SDS011;35723;51.194;5.112;2024-03-07T00:41:41;65.03;;;33.50;;
49828;SDS011;35723;51.194;5.112;2024-03-07T00:44:08;73.22;;;35.42;;
49828;SDS011;35723;51.194;5.112;2024-03-07T00:50:01;65.78;;;34.65;;
49828;SDS011;35723;51.194;5.112;2024-03-07T00:52:27;70.65;;;34.47;;
49828;SDS011;35723;51.194;5.112;2024-03-07T00:54:52;70.20;;;35.15;;
49828;SDS011;35723;51.194;5.112;2024-03-07T00:57:18;69.65;;;35.70;;
49828;SDS011;35723;51.194;5.112;2024-03-07T01:08:49;69.90;;;33.70;;
49828;SDS011;35723;51.194;5.112;2024-03-07T01:11:15;71.80;;;35.05;;
49828;SDS011;35723;51.194;5.112;2024-03-07T01:13:41;73.60;;;35.28;;
49828;SDS011;35723;51.194;5.112;2024-03-07T01:16:07;72.85;;;36.35;;
49828;SDS011;35723;51.194;5.112;2024-03-07T01:27:34;77.13;;;35.67;;
49828;SDS011;35723;51.194;5.112;2024-03-07T01:30:00;77.15;;;37.58;;
49828;SDS011;35723;51.194;5.112;2024-03-07T01:32:26;77.13;;;36.00;;
49828;SDS011;35723;51.194;5.112;2024-03-07T01:37:39;78.60;;;37.60;;
49828;SDS011;35723;51.194;5.112;2024-03-07T01:40:05;77.20;;;36.30;;
49828;SDS011;35723;51.194;5.112;2024-03-07T01:42:33;79.60;;;36.75;;
49828;SDS011;35723;51.194;5.112;2024-03-07T01:44:59;80.95;;;37.15;;
49828;SDS011;35723;51.194;5.112;2024-03-07T01:47:29;78.53;;;36.90;;
49828;SDS011;35723;51.194;5.112;2024-03-07T01:53:28;77.93;;;35.90;;
49828;SDS011;35723;51.194;5.112;2024-03-07T01:59:22;80.65;;;36.10;;
49828;SDS011;35723;51.194;5.112;2024-03-07T02:05:23;78.50;;;36.10;;
49828;SDS011;35723;51.194;5.112;2024-03-07T02:11:17;79.97;;;35.60;;
49828;SDS011;35723;51.194;5.112;2024-03-07T02:13:43;77.35;;;35.90;;
49828;SDS011;35723;51.194;5.112;2024-03-07T02:16:09;79.97;;;36.28;;
49828;SDS011;35723;51.194;5.112;2024-03-07T02:18:35;83.72;;;36.97;;
49828;SDS011;35723;51.194;5.112;2024-03-07T02:21:05;86.47;;;37.72;;
49828;SDS011;35723;51.194;5.112;2024-03-07T02:27:01;83.88;;;36.42;;
49828;SDS011;35723;51.194;5.112;2024-03-07T02:32:50;81.10;;;36.78;;
49828;SDS011;35723;51.194;5.112;2024-03-07T02:35:19;85.90;;;37.28;;
49828;SDS011;35723;51.194;5.112;2024-03-07T02:37:45;82.75;;;37.10;;
49828;SDS011;35723;51.194;5.112;2024-03-07T02:40:11;84.90;;;37.95;;
49828;SDS011;35723;51.194;5.112;2024-03-07T02:42:37;81.90;;;35.53;;
49828;SDS011;35723;51.194;5.112;2024-03-07T02:45:11;82.45;;;37.25;;
49828;SDS011;35723;51.194;5.112;2024-03-07T02:50:23;86.78;;;38.03;;
49828;SDS011;35723;51.194;5.112;2024-03-07T02:52:49;85.78;;;39.22;;
49828;SDS011;35723;51.194;5.112;2024-03-07T02:55:17;89.93;;;39.20;;
49828;SDS011;35723;51.194;5.112;2024-03-07T02:57:44;85.13;;;39.08;;
49828;SDS011;35723;51.194;5.112;2024-03-07T03:00:10;88.85;;;39.40;;
49828;SDS011;35723;51.194;5.112;2024-03-07T03:02:51;92.53;;;40.38;;
49828;SDS011;35723;51.194;5.112;2024-03-07T03:05:23;86.15;;;38.55;;
49828;SDS011;35723;51.194;5.112;2024-03-07T03:07:49;88.05;;;39.20;;
49828;SDS011;35723;51.194;5.112;2024-03-07T03:12:57;95.15;;;40.63;;
49828;SDS011;35723;51.194;5.112;2024-03-07T03:17:49;85.65;;;37.30;;
49828;SDS011;35723;51.194;5.112;2024-03-07T03:20:17;93.35;;;38.80;;
49828;SDS011;35723;51.194;5.112;2024-03-07T03:23:06;88.63;;;39.00;;
49828;SDS011;35723;51.194;5.112;2024-03-07T03:29:02;95.90;;;39.42;;
49828;SDS011;35723;51.194;5.112;2024-03-07T03:34:14;90.35;;;40.00;;
49828;SDS011;35723;51.194;5.112;2024-03-07T03:36:39;93.70;;;40.20;;
49828;SDS011;35723;51.194;5.112;2024-03-07T03:39:05;94.45;;;39.50;;
49828;SDS011;35723;51.194;5.112;2024-03-07T03:41:32;91.07;;;40.13;;
49828;SDS011;35723;51.194;5.112;2024-03-07T03:43:57;92.95;;;39.00;;
49828;SDS011;35723;51.194;5.112;2024-03-07T03:46:23;90.60;;;40.30;;
49828;SDS011;35723;51.194;5.112;2024-03-07T03:48:49;96.50;;;39.65;;
49828;SDS011;35723;51.194;5.112;2024-03-07T03:51:15;98.20;;;40.88;;
49828;SDS011;35723;51.194;5.112;2024-03-07T03:53:41;98.47;;;41.22;;
49828;SDS011;35723;51.194;5.112;2024-03-07T03:56:09;92.95;;;39.67;;
49828;SDS011;35723;51.194;5.112;2024-03-07T04:01:24;99.07;;;41.17;;
49828;SDS011;35723;51.194;5.112;2024-03-07T04:03:50;94.90;;;39.50;;
49828;SDS011;35723;51.194;5.112;2024-03-07T04:06:15;98.60;;;40.08;;
49828;SDS011;35723;51.194;5.112;2024-03-07T04:08:41;96.85;;;40.17;;
49828;SDS011;35723;51.194;5.112;2024-03-07T04:11:07;99.30;;;41.00;;
49828;SDS011;35723;51.194;5.112;2024-03-07T04:13:35;95.88;;;40.75;;
49828;SDS011;35723;51.194;5.112;2024-03-07T04:16:00;96.95;;;41.22;;
49828;SDS011;35723;51.194;5.112;2024-03-07T04:18:26;97.00;;;42.20;;
49828;SDS011;35723;51.194;5.112;2024-03-07T04:20:52;102.95;;;43.72;;
49828;SDS011;35723;51.194;5.112;2024-03-07T04:23:17;106.70;;;45.08;;
49828;SDS011;35723;51.194;5.112;2024-03-07T04:25:44;108.18;;;45.00;;
49828;SDS011;35723;51.194;5.112;2024-03-07T04:31:41;103.88;;;43.47;;
49828;SDS011;35723;51.194;5.112;2024-03-07T04:37:10;118.80;;;48.00;;
49828;SDS011;35723;51.194;5.112;2024-03-07T04:39:37;118.32;;;46.97;;
49828;SDS011;35723;51.194;5.112;2024-03-07T04:42:04;120.78;;;47.45;;
49828;SDS011;35723;51.194;5.112;2024-03-07T04:48:01;124.28;;;47.95;;
49828;SDS011;35723;51.194;5.112;2024-03-07T04:50:28;125.88;;;48.55;;
49828;SDS011;35723;51.194;5.112;2024-03-07T04:52:54;115.88;;;47.63;;
49828;SDS011;35723;51.194;5.112;2024-03-07T04:55:19;125.25;;;46.63;;
49828;SDS011;35723;51.194;5.112;2024-03-07T05:04:15;120.72;;;46.60;;
49828;SDS011;35723;51.194;5.112;2024-03-07T05:10:07;120.75;;;45.78;;
49828;SDS011;35723;51.194;5.112;2024-03-07T05:15:55;116.05;;;45.20;;
49828;SDS011;35723;51.194;5.112;2024-03-07T05:21:27;120.32;;;46.55;;
49828;SDS011;35723;51.194;5.112;2024-03-07T05:23:59;123.20;;;47.40;;
49828;SDS011;35723;51.194;5.112;2024-03-07T05:30:03;127.43;;;46.45;;
49828;SDS011;35723;51.194;5.112;2024-03-07T05:35:56;118.65;;;44.78;;
49828;SDS011;35723;51.194;5.112;2024-03-07T05:38:27;117.32;;;47.55;;
49828;SDS011;35723;51.194;5.112;2024-03-07T05:40:53;115.38;;;45.92;;
49828;SDS011;35723;51.194;5.112;2024-03-07T05:43:19;122.68;;;48.20;;
49828;SDS011;35723;51.194;5.112;2024-03-07T05:51:22;105.25;;;44.85;;
49828;SDS011;35723;51.194;5.112;2024-03-07T05:53:48;105.00;;;44.65;;
49828;SDS011;35723;51.194;5.112;2024-03-07T05:56:19;113.82;;;46.08;;
49828;SDS011;35723;51.194;5.112;2024-03-07T06:02:22;104.22;;;44.50;;
49828;SDS011;35723;51.194;5.112;2024-03-07T06:07:40;102.05;;;42.20;;
49828;SDS011;35723;51.194;5.112;2024-03-07T06:10:06;102.43;;;43.20;;
49828;SDS011;35723;51.194;5.112;2024-03-07T06:16:06;97.45;;;42.20;;
49828;SDS011;35723;51.194;5.112;2024-03-07T06:18:32;101.40;;;44.35;;
49828;SDS011;35723;51.194;5.112;2024-03-07T06:20:58;95.93;;;41.17;;
49828;SDS011;35723;51.194;5.112;2024-03-07T06:23:34;98.88;;;45.20;;
49828;SDS011;35723;51.194;5.112;2024-03-07T06:29:23;93.50;;;42.17;;
49828;SDS011;35723;51.194;5.112;2024-03-07T06:31:49;90.22;;;41.33;;
49828;SDS011;35723;51.194;5.112;2024-03-07T06:34:15;89.07;;;40.75;;
49828;SDS011;35723;51.194;5.112;2024-03-07T06:36:41;88.40;;;40.30;;
49828;SDS011;35723;51.194;5.112;2024-03-07T06:41:54;94.85;;;41.97;;
49828;SDS011;35723;51.194;5.112;2024-03-07T06:44:20;95.85;;;42.30;;
49828;SDS011;35723;51.194;5.112;2024-03-07T06:50:11;89.30;;;40.33;;
49828;SDS011;35723;51.194;5.112;2024-03-07T06:56:01;90.80;;;40.28;;
49828;SDS011;35723;51.194;5.112;2024-03-07T06:58:27;90.25;;;41.58;;
49828;SDS011;35723;51.194;5.112;2024-03-07T07:00:53;96.72;;;42.55;;
49828;SDS011;35723;51.194;5.112;2024-03-07T07:03:22;97.82;;;42.65;;
49828;SDS011;35723;51.194;5.112;2024-03-07T07:05:49;93.60;;;41.42;;
49828;SDS011;35723;51.194;5.112;2024-03-07T07:08:14;93.22;;;41.97;;
49828;SDS011;35723;51.194;5.112;2024-03-07T07:10:43;88.32;;;42.65;;
49828;SDS011;35723;51.194;5.112;2024-03-07T07:16:42;88.28;;;41.28;;
49828;SDS011;35723;51.194;5.112;2024-03-07T07:22:47;91.82;;;42.13;;
49828;SDS011;35723;51.194;5.112;2024-03-07T07:27:57;95.22;;;43.70;;
49828;SDS011;35723;51.194;5.112;2024-03-07T07:30:23;89.65;;;43.30;;
49828;SDS011;35723;51.194;5.112;2024-03-07T07:32:50;91.68;;;42.50;;
49828;SDS011;35723;51.194;5.112;2024-03-07T07:35:22;97.82;;;45.35;;
49828;SDS011;35723;51.194;5.112;2024-03-07T07:41:19;90.88;;;44.05;;
49828;SDS011;35723;51.194;5.112;2024-03-07T07:43:45;96.40;;;45.08;;
49828;SDS011;35723;51.194;5.112;2024-03-07T07:46:11;91.30;;;44.28;;
49828;SDS011;35723;51.194;5.112;2024-03-07T07:48:48;94.07;;;44.05;;
49828;SDS011;35723;51.194;5.112;2024-03-07T07:57:26;91.90;;;43.72;;
49828;SDS011;35723;51.194;5.112;2024-03-07T07:59:52;88.65;;;42.90;;
49828;SDS011;35723;51.194;5.112;2024-03-07T08:02:17;93.78;;;43.53;;
49828;SDS011;35723;51.194;5.112;2024-03-07T08:04:43;88.57;;;43.20;;
49828;SDS011;35723;51.194;5.112;2024-03-07T08:07:09;90.95;;;43.22;;
49828;SDS011;35723;51.194;5.112;2024-03-07T08:09:34;89.10;;;44.75;;
49828;SDS011;35723;51.194;5.112;2024-03-07T08:12:00;90.32;;;44.88;;
49828;SDS011;35723;51.194;5.112;2024-03-07T08:14:27;85.93;;;43.75;;
49828;SDS011;35723;51.194;5.112;2024-03-07T08:16:57;89.55;;;43.83;;
49828;SDS011;35723;51.194;5.112;2024-03-07T08:29:44;84.22;;;41.60;;
49828;SDS011;35723;51.194;5.112;2024-03-07T08:35:12;80.40;;;41.97;;
49828;SDS011;35723;51.194;5.112;2024-03-07T08:37:39;89.55;;;43.03;;
49828;SDS011;35723;51.194;5.112;2024-03-07T08:43:38;81.53;;;42.10;;
49828;SDS011;35723;51.194;5.112;2024-03-07T08:51:36;84.30;;;41.97;;
49828;SDS011;35723;51.194;5.112;2024-03-07T08:54:01;77.63;;;40.53;;
49828;SDS011;35723;51.194;5.112;2024-03-07T08:56:27;78.22;;;39.65;;
49828;SDS011;35723;51.194;5.112;2024-03-07T08:58:53;72.50;;;38.50;;
49828;SDS011;35723;51.194;5.112;2024-03-07T09:01:19;79.45;;;41.45;;
49828;SDS011;35723;51.194;5.112;2024-03-07T09:03:45;78.53;;;39.63;;
49828;SDS011;35723;51.194;5.112;2024-03-07T09:06:10;76.18;;;40.28;;
49828;SDS011;35723;51.194;5.112;2024-03-07T09:08:38;76.30;;;40.22;;
49828;SDS011;35723;51.194;5.112;2024-03-07T09:11:04;82.03;;;39.58;;
49828;SDS011;35723;51.194;5.112;2024-03-07T09:13:29;76.97;;;40.90;;
49828;SDS011;35723;51.194;5.112;2024-03-07T09:15:55;77.82;;;38.85;;
49828;SDS011;35723;51.194;5.112;2024-03-07T09:18:21;77.63;;;39.70;;
49828;SDS011;35723;51.194;5.112;2024-03-07T09:20:49;71.88;;;38.55;;
49828;SDS011;35723;51.194;5.112;2024-03-07T09:23:14;71.72;;;38.83;;
49828;SDS011;35723;51.194;5.112;2024-03-07T09:25:41;71.32;;;36.33;;
49828;SDS011;35723;51.194;5.112;2024-03-07T09:28:07;73.00;;;37.60;;
49828;SDS011;35723;51.194;5.112;2024-03-07T09:30:34;66.00;;;36.30;;
49828;SDS011;35723;51.194;5.112;2024-03-07T09:33:03;68.43;;;37.10;;
49828;SDS011;35723;51.194;5.112;2024-03-07T09:35:29;71.50;;;36.08;;
49828;SDS011;35723;51.194;5.112;2024-03-07T09:37:54;66.43;;;36.50;;
49828;SDS011;35723;51.194;5.112;2024-03-07T09:40:21;65.82;;;35.58;;
49828;SDS011;35723;51.194;5.112;2024-03-07T09:42:50;61.05;;;34.85;;
49828;SDS011;35723;51.194;5.112;2024-03-07T09:45:21;63.83;;;35.90;;
49828;SDS011;35723;51.194;5.112;2024-03-07T09:51:35;74.32;;;35.63;;
49828;SDS011;35723;51.194;5.112;2024-03-07T09:57:26;69.78;;;35.75;;
49828;SDS011;35723;51.194;5.112;2024-03-07T10:09:25;68.85;;;36.90;;
49828;SDS011;35723;51.194;5.112;2024-03-07T10:18:26;75.85;;;38.53;;
49828;SDS011;35723;51.194;5.112;2024-03-07T10:20:55;72.15;;;38.83;;
49828;SDS011;35723;51.194;5.112;2024-03-07T10:23:22;65.75;;;37.63;;
49828;SDS011;35723;51.194;5.112;2024-03-07T10:25:48;73.47;;;38.25;;
49828;SDS011;35723;51.194;5.112;2024-03-07T10:31:36;65.55;;;37.80;;
49828;SDS011;35723;51.194;5.112;2024-03-07T10:34:03;69.35;;;39.50;;
49828;SDS011;35723;51.194;5.112;2024-03-07T10:36:30;65.88;;;38.83;;
49828;SDS011;35723;51.194;5.112;2024-03-07T10:38:57;69.95;;;39.55;;
49828;SDS011;35723;51.194;5.112;2024-03-07T10:41:42;67.38;;;38.30;;
49828;SDS011;35723;51.194;5.112;2024-03-07T10:44:20;64.07;;;36.85;;
49828;SDS011;35723;51.194;5.112;2024-03-07T10:46:53;68.30;;;36.88;;
49828;SDS011;35723;51.194;5.112;2024-03-07T10:49:21;64.88;;;38.30;;
49828;SDS011;35723;51.194;5.112;2024-03-07T10:51:52;62.95;;;35.88;;
49828;SDS011;35723;51.194;5.112;2024-03-07T10:55:05;63.90;;;35.63;;
49828;SDS011;35723;51.194;5.112;2024-03-07T10:57:52;60.85;;;35.20;;
49828;SDS011;35723;51.194;5.112;2024-03-07T11:00:27;67.00;;;37.20;;
49828;SDS011;35723;51.194;5.112;2024-03-07T11:03:00;61.63;;;35.53;;
49828;SDS011;35723;51.194;5.112;2024-03-07T11:05:32;57.67;;;33.45;;
49828;SDS011;35723;51.194;5.112;2024-03-07T11:07:59;57.55;;;34.38;;
49828;SDS011;35723;51.194;5.112;2024-03-07T11:10:32;59.00;;;34.33;;
49828;SDS011;35723;51.194;5.112;2024-03-07T11:13:00;57.38;;;33.20;;
49828;SDS011;35723;51.194;5.112;2024-03-07T11:15:27;54.67;;;32.20;;
49828;SDS011;35723;51.194;5.112;2024-03-07T11:17:54;56.95;;;33.30;;
49828;SDS011;35723;51.194;5.112;2024-03-07T11:20:26;59.25;;;33.47;;
49828;SDS011;35723;51.194;5.112;2024-03-07T11:22:59;57.17;;;31.77;;
49828;SDS011;35723;51.194;5.112;2024-03-07T11:25:26;57.85;;;32.33;;
49828;SDS011;35723;51.194;5.112;2024-03-07T11:27:56;56.95;;;32.90;;
49828;SDS011;35723;51.194;5.112;2024-03-07T11:30:23;55.28;;;32.28;;
49828;SDS011;35723;51.194;5.112;2024-03-07T11:32:53;55.05;;;32.70;;
49828;SDS011;35723;51.194;5.112;2024-03-07T11:35:19;59.63;;;32.25;;
49828;SDS011;35723;51.194;5.112;2024-03-07T11:37:56;59.50;;;32.75;;
49828;SDS011;35723;51.194;5.112;2024-03-07T11:42:50;53.40;;;31.77;;
49828;SDS011;35723;51.194;5.112;2024-03-07T11:45:17;51.85;;;30.40;;
49828;SDS011;35723;51.194;5.112;2024-03-07T11:47:53;49.45;;;28.48;;
49828;SDS011;35723;51.194;5.112;2024-03-07T11:50:46;49.03;;;28.40;;
49828;SDS011;35723;51.194;5.112;2024-03-07T11:53:12;49.70;;;27.20;;
49828;SDS011;35723;51.194;5.112;2024-03-07T11:55:38;51.20;;;28.70;;
49828;SDS011;35723;51.194;5.112;2024-03-07T11:58:14;48.85;;;28.17;;
49828;SDS011;35723;51.194;5.112;2024-03-07T12:00:41;49.28;;;27.48;;
49828;SDS011;35723;51.194;5.112;2024-03-07T12:03:10;45.17;;;26.90;;
49828;SDS011;35723;51.194;5.112;2024-03-07T12:05:42;47.35;;;27.30;;
49828;SDS011;35723;51.194;5.112;2024-03-07T12:08:10;47.17;;;26.10;;
49828;SDS011;35723;51.194;5.112;2024-03-07T12:10:40;43.90;;;25.20;;
49828;SDS011;35723;51.194;5.112;2024-03-07T12:13:09;46.63;;;24.60;;
49828;SDS011;35723;51.194;5.112;2024-03-07T12:15:40;45.83;;;24.67;;
49828;SDS011;35723;51.194;5.112;2024-03-07T12:18:07;41.20;;;24.55;;
49828;SDS011;35723;51.194;5.112;2024-03-07T12:20:38;44.90;;;24.55;;
49828;SDS011;35723;51.194;5.112;2024-03-07T12:23:06;41.75;;;24.50;;
49828;SDS011;35723;51.194;5.112;2024-03-07T12:25:37;40.88;;;23.25;;
49828;SDS011;35723;51.194;5.112;2024-03-07T12:28:10;43.70;;;24.67;;
49828;SDS011;35723;51.194;5.112;2024-03-07T12:30:47;41.88;;;23.40;;
49828;SDS011;35723;51.194;5.112;2024-03-07T12:33:20;42.78;;;24.95;;
49828;SDS011;35723;51.194;5.112;2024-03-07T12:35:50;39.40;;;23.23;;
49828;SDS011;35723;51.194;5.112;2024-03-07T12:38:21;37.65;;;21.95;;
49828;SDS011;35723;51.194;5.112;2024-03-07T12:41:01;43.17;;;22.63;;
49828;SDS011;35723;51.194;5.112;2024-03-07T12:43:32;38.40;;;21.98;;
49828;SDS011;35723;51.194;5.112;2024-03-07T12:45:58;39.17;;;21.48;;
49828;SDS011;35723;51.194;5.112;2024-03-07T12:48:24;38.47;;;21.42;;
49828;SDS011;35723;51.194;5.112;2024-03-07T12:50:52;36.70;;;20.85;;
49828;SDS011;35723;51.194;5.112;2024-03-07T12:53:19;37.00;;;20.70;;
49828;SDS011;35723;51.194;5.112;2024-03-07T12:55:48;37.25;;;20.40;;
49828;SDS011;35723;51.194;5.112;2024-03-07T12:58:14;40.65;;;20.95;;
49828;SDS011;35723;51.194;5.112;2024-03-07T13:00:40;36.28;;;20.23;;
49828;SDS011;35723;51.194;5.112;2024-03-07T13:03:07;45.25;;;20.05;;
49828;SDS011;35723;51.194;5.112;2024-03-07T13:05:39;38.13;;;20.38;;
49828;SDS011;35723;51.194;5.112;2024-03-07T13:08:08;35.17;;;20.02;;
49828;SDS011;35723;51.194;5.112;2024-03-07T13:10:37;38.75;;;21.13;;
49828;SDS011;35723;51.194;5.112;2024-03-07T13:13:09;38.58;;;20.67;;
49828;SDS011;35723;51.194;5.112;2024-03-07T13:15:39;36.13;;;20.23;;
49828;SDS011;35723;51.194;5.112;2024-03-07T13:18:07;37.20;;;20.67;;
49828;SDS011;35723;51.194;5.112;2024-03-07T13:20:34;37.42;;;20.38;;
49828;SDS011;35723;51.194;5.112;2024-03-07T13:23:00;38.88;;;20.45;;
49828;SDS011;35723;51.194;5.112;2024-03-07T13:25:26;36.67;;;20.55;;
49828;SDS011;35723;51.194;5.112;2024-03-07T13:30:32;36.58;;;19.20;;
49828;SDS011;35723;51.194;5.112;2024-03-07T13:33:01;36.45;;;19.42;;
49828;SDS011;35723;51.194;5.112;2024-03-07T13:35:28;36.67;;;19.60;;
49828;SDS011;35723;51.194;5.112;2024-03-07T13:37:54;35.40;;;20.48;;
49828;SDS011;35723;51.194;5.112;2024-03-07T13:40:24;38.35;;;19.98;;
49828;SDS011;35723;51.194;5.112;2024-03-07T13:42:52;33.10;;;19.20;;
49828;SDS011;35723;51.194;5.112;2024-03-07T13:45:22;34.95;;;19.20;;
49828;SDS011;35723;51.194;5.112;2024-03-07T13:47:56;36.97;;;19.48;;
49828;SDS011;35723;51.194;5.112;2024-03-07T13:50:24;35.85;;;18.92;;
49828;SDS011;35723;51.194;5.112;2024-03-07T13:52:53;37.22;;;19.65;;
49828;SDS011;35723;51.194;5.112;2024-03-07T13:55:41;35.90;;;19.08;;
49828;SDS011;35723;51.194;5.112;2024-03-07T14:04:14;37.20;;;19.55;;
49828;SDS011;35723;51.194;5.112;2024-03-07T14:12:58;39.50;;;20.03;;
49828;SDS011;35723;51.194;5.112;2024-03-07T14:27:15;35.30;;;20.10;;
49828;SDS011;35723;51.194;5.112;2024-03-07T14:32:48;37.90;;;20.10;;
49828;SDS011;35723;51.194;5.112;2024-03-07T14:35:31;39.75;;;20.02;;
49828;SDS011;35723;51.194;5.112;2024-03-07T14:40:50;37.05;;;19.90;;
49828;SDS011;35723;51.194;5.112;2024-03-07T14:43:17;38.05;;;19.67;;
49828;SDS011;35723;51.194;5.112;2024-03-07T14:45:44;36.10;;;19.67;;
49828;SDS011;35723;51.194;5.112;2024-03-07T14:48:11;35.13;;;18.92;;
49828;SDS011;35723;51.194;5.112;2024-03-07T14:50:43;35.13;;;19.45;;
49828;SDS011;35723;51.194;5.112;2024-03-07T14:53:11;35.88;;;19.05;;
49828;SDS011;35723;51.194;5.112;2024-03-07T14:55:38;36.40;;;20.05;;
49828;SDS011;35723;51.194;5.112;2024-03-07T14:58:05;39.08;;;18.80;;
49828;SDS011;35723;51.194;5.112;2024-03-07T15:00:34;38.38;;;19.10;;
49828;SDS011;35723;51.194;5.112;2024-03-07T15:03:06;33.92;;;18.30;;
49828;SDS011;35723;51.194;5.112;2024-03-07T15:05:38;34.85;;;18.83;;
49828;SDS011;35723;51.194;5.112;2024-03-07T15:08:09;32.70;;;18.00;;
49828;SDS011;35723;51.194;5.112;2024-03-07T15:10:36;36.85;;;18.80;;
49828;SDS011;35723;51.194;5.112;2024-03-07T15:13:07;34.97;;;18.63;;
49828;SDS011;35723;51.194;5.112;2024-03-07T15:15:37;36.85;;;18.63;;
49828;SDS011;35723;51.194;5.112;2024-03-07T15:18:05;33.95;;;18.50;;
49828;SDS011;35723;51.194;5.112;2024-03-07T15:20:31;35.65;;;17.92;;
49828;SDS011;35723;51.194;5.112;2024-03-07T15:22:57;37.30;;;17.48;;
49828;SDS011;35723;51.194;5.112;2024-03-07T15:25:24;34.28;;;18.00;;
49828;SDS011;35723;51.194;5.112;2024-03-07T15:27:51;34.42;;;17.95;;
49828;SDS011;35723;51.194;5.112;2024-03-07T15:30:21;35.38;;;18.23;;
49828;SDS011;35723;51.194;5.112;2024-03-07T15:32:50;31.65;;;16.35;;
49828;SDS011;35723;51.194;5.112;2024-03-07T15:35:16;36.35;;;16.65;;
49828;SDS011;35723;51.194;5.112;2024-03-07T15:37:49;30.65;;;16.17;;
49828;SDS011;35723;51.194;5.112;2024-03-07T15:40:15;30.33;;;15.77;;
49828;SDS011;35723;51.194;5.112;2024-03-07T15:42:42;34.30;;;16.23;;
49828;SDS011;35723;51.194;5.112;2024-03-07T15:45:13;32.53;;;16.85;;
49828;SDS011;35723;51.194;5.112;2024-03-07T15:47:44;29.48;;;15.75;;
49828;SDS011;35723;51.194;5.112;2024-03-07T15:50:35;32.38;;;16.70;;
49828;SDS011;35723;51.194;5.112;2024-03-07T15:53:02;30.88;;;16.50;;
49828;SDS011;35723;51.194;5.112;2024-03-07T15:55:29;32.85;;;16.27;;
49828;SDS011;35723;51.194;5.112;2024-03-07T15:57:58;31.63;;;17.10;;
49828;SDS011;35723;51.194;5.112;2024-03-07T16:00:29;28.60;;;16.23;;
49828;SDS011;35723;51.194;5.112;2024-03-07T16:02:59;30.75;;;15.43;;
49828;SDS011;35723;51.194;5.112;2024-03-07T16:05:29;29.13;;;15.50;;
49828;SDS011;35723;51.194;5.112;2024-03-07T16:07:56;30.98;;;16.27;;
49828;SDS011;35723;51.194;5.112;2024-03-07T16:10:26;32.30;;;17.50;;
49828;SDS011;35723;51.194;5.112;2024-03-07T16:12:55;29.10;;;15.50;;
49828;SDS011;35723;51.194;5.112;2024-03-07T16:15:23;31.70;;;16.45;;
49828;SDS011;35723;51.194;5.112;2024-03-07T16:17:49;28.05;;;14.93;;
49828;SDS011;35723;51.194;5.112;2024-03-07T16:20:15;28.35;;;14.82;;
49828;SDS011;35723;51.194;5.112;2024-03-07T16:22:44;30.88;;;16.52;;
49828;SDS011;35723;51.194;5.112;2024-03-07T16:25:11;33.13;;;17.17;;
49828;SDS011;35723;51.194;5.112;2024-03-07T16:27:40;36.38;;;17.77;;
49828;SDS011;35723;51.194;5.112;2024-03-07T16:32:45;33.72;;;18.02;;
49828;SDS011;35723;51.194;5.112;2024-03-07T16:35:14;36.15;;;18.77;;
49828;SDS011;35723;51.194;5.112;2024-03-07T16:37:46;40.30;;;18.70;;
49828;SDS011;35723;51.194;5.112;2024-03-07T16:42:42;36.00;;;19.38;;
49828;SDS011;35723;51.194;5.112;2024-03-07T16:45:09;38.30;;;19.52;;
49828;SDS011;35723;51.194;5.112;2024-03-07T16:47:38;39.65;;;20.10;;
49828;SDS011;35723;51.194;5.112;2024-03-07T16:50:05;35.95;;;19.98;;
49828;SDS011;35723;51.194;5.112;2024-03-07T16:52:34;39.25;;;20.42;;
49828;SDS011;35723;51.194;5.112;2024-03-07T16:55:01;39.30;;;19.67;;
49828;SDS011;35723;51.194;5.112;2024-03-07T16:57:27;38.75;;;21.25;;
49828;SDS011;35723;51.194;5.112;2024-03-07T16:59:53;36.60;;;20.38;;
49828;SDS011;35723;51.194;5.112;2024-03-07T17:02:19;39.45;;;21.23;;
49828;SDS011;35723;51.194;5.112;2024-03-07T17:04:46;37.33;;;20.70;;
49828;SDS011;35723;51.194;5.112;2024-03-07T17:07:12;41.17;;;20.90;;
49828;SDS011;35723;51.194;5.112;2024-03-07T17:09:38;38.00;;;21.27;;
49828;SDS011;35723;51.194;5.112;2024-03-07T17:12:06;37.50;;;20.90;;
49828;SDS011;35723;51.194;5.112;2024-03-07T17:14:34;36.50;;;19.02;;
49828;SDS011;35723;51.194;5.112;2024-03-07T17:17:03;37.42;;;20.60;;
49828;SDS011;35723;51.194;5.112;2024-03-07T17:19:31;35.97;;;19.00;;
49828;SDS011;35723;51.194;5.112;2024-03-07T17:21:57;37.00;;;20.30;;
49828;SDS011;35723;51.194;5.112;2024-03-07T17:24:23;37.95;;;20.83;;
49828;SDS011;35723;51.194;5.112;2024-03-07T17:26:48;38.67;;;21.52;;
49828;SDS011;35723;51.194;5.112;2024-03-07T17:29:14;36.50;;;20.00;;
49828;SDS011;35723;51.194;5.112;2024-03-07T17:31:41;37.17;;;19.88;;
49828;SDS011;35723;51.194;5.112;2024-03-07T17:34:07;38.55;;;20.23;;
49828;SDS011;35723;51.194;5.112;2024-03-07T17:36:33;37.40;;;19.85;;
49828;SDS011;35723;51.194;5.112;2024-03-07T17:38:59;37.00;;;20.15;;
49828;SDS011;35723;51.194;5.112;2024-03-07T17:41:26;40.92;;;21.27;;
49828;SDS011;35723;51.194;5.112;2024-03-07T17:43:52;35.00;;;19.75;;
49828;SDS011;35723;51.194;5.112;2024-03-07T17:46:17;33.80;;;19.02;;
49828;SDS011;35723;51.194;5.112;2024-03-07T17:48:45;38.05;;;21.02;;
49828;SDS011;35723;51.194;5.112;2024-03-07T17:51:10;41.38;;;20.80;;
49828;SDS011;35723;51.194;5.112;2024-03-07T17:53:38;40.58;;;21.80;;
49828;SDS011;35723;51.194;5.112;2024-03-07T17:56:04;37.95;;;20.77;;
49828;SDS011;35723;51.194;5.112;2024-03-07T17:58:31;40.78;;;21.42;;
49828;SDS011;35723;51.194;5.112;2024-03-07T18:00:57;38.70;;;22.13;;
49828;SDS011;35723;51.194;5.112;2024-03-07T18:03:23;39.03;;;20.33;;
49828;SDS011;35723;51.194;5.112;2024-03-07T18:05:49;42.88;;;21.42;;
49828;SDS011;35723;51.194;5.112;2024-03-07T18:08:16;35.40;;;18.90;;
49828;SDS011;35723;51.194;5.112;2024-03-07T18:10:42;35.67;;;19.63;;
49828;SDS011;35723;51.194;5.112;2024-03-07T18:13:10;39.35;;;20.15;;
49828;SDS011;35723;51.194;5.112;2024-03-07T18:15:40;36.38;;;19.83;;
49828;SDS011;35723;51.194;5.112;2024-03-07T18:18:06;40.15;;;21.20;;
49828;SDS011;35723;51.194;5.112;2024-03-07T18:20:37;38.15;;;20.88;;